l'Alfas del Pi, Spain
Current Conditions -  °F | °C
As of 2:00 AM on Sunday 26 Oct 2014 (Local Time) from LEAL Reporting Station
Clear Clear  
Wind Chill: 63°   Ceiling: Unl
Heat Index: 63°   Visibility: 6mi
Dew Point: 45°   Wind: 3mph
Humidity: 52%   Direction: 290°WNW
Pressure: 30.15"   Gusts: NA
Location:  38.58°N, 0.1°W
Report Text: LEAL 260000Z 29003KT CAVOK 17/07 Q1021 NOSIG
Loading
Personal Weather Stations






























Interactive Weather Map
Tropical Storm Tracking
New forecast layout! Learn more

10-Day Weather Forecast

Advertisements
Track Severe Weather on mobile